Time;durP1;ratioP1;P1;durP2;ratioP2;P2;SDS_P1;SDS_P2;PMS_P1;PMS_P2;Temp;Humidity;BMP_temperature;BMP_pressure;BME280_temperature;BME280_humidity;BME280_pressure;Samples;Min_cycle;Max_cycle;Signal;HPM_P1;HPM_P2
2021/12/31 00:02:33;;;;;;;27.52;19.62;;;;;;;2.53;87.83;100103.23;3484460;80;21486;-69
2021/12/31 00:07:25;;;;;;;26.37;17.73;;;;;;;2.53;87.73;100093.83;3448381;81;21846;-68
2021/12/31 00:12:17;;;;;;;28.95;18.92;;;;;;;2.53;87.65;100091.27;3395924;82;21041;-68
2021/12/31 00:17:09;;;;;;;26.65;18.48;;;;;;;2.53;87.73;100089.12;3438159;80;20952;-68
2021/12/31 00:22:16;;;;;;;28.30;18.95;;;;;;;2.52;87.68;100076.67;3424725;80;21013;-69
2021/12/31 00:26:55;;;;;;;30.17;18.62;;;;;;;2.52;87.67;100079.23;3471563;81;21027;-69
2021/12/31 00:31:47;;;;;;;27.67;19.17;;;;;;;2.56;87.87;100094.34;3488842;80;22102;-69
2021/12/31 00:36:45;;;;;;;28.95;19.77;;;;;;;2.56;87.87;100091.39;3426799;81;20985;-69
2021/12/31 00:41:38;;;;;;;28.85;19.92;;;;;;;2.61;87.99;100105.28;3428193;80;21025;-69
2021/12/31 00:46:32;;;;;;;29.60;20.05;;;;;;;2.65;88.04;100105.86;3413454;80;21017;-69
2021/12/31 00:51:25;;;;;;;33.23;21.48;;;;;;;2.69;88.27;100100.86;3465716;80;21047;-69
2021/12/31 00:56:17;;;;;;;30.43;20.48;;;;;;;2.75;88.35;100108.36;3498166;80;22443;-69
2021/12/31 01:01:16;;;;;;;34.48;22.15;;;;;;;2.77;88.26;100100.34;3445436;80;20966;-70
2021/12/31 01:06:04;;;;;;;38.42;25.80;;;;;;;2.86;89.30;100103.64;3527424;79;21014;-69
2021/12/31 01:10:56;;;;;;;50.38;28.35;;;;;;;2.97;89.11;100104.95;3532512;79;20985;-69
2021/12/31 01:15:50;;;;;;;48.60;25.45;;;;;;;3.00;88.95;100102.47;3469973;79;21019;-68
2021/12/31 01:20:42;;;;;;;31.15;20.88;;;;;;;3.02;88.89;100105.09;3474243;81;20998;-69
2021/12/31 01:25:34;;;;;;;29.82;21.65;;;;;;;3.03;88.90;100110.30;3461522;80;20950;-68
2021/12/31 01:30:27;;;;;;;35.58;19.15;;;;;;;3.09;88.99;100101.08;3435668;80;21006;-69
2021/12/31 01:35:19;;;;;;;24.50;16.50;;;;;;;3.18;89.52;100094.98;3413326;80;20980;-69
2021/12/31 01:40:12;;;;;;;25.32;16.75;;;;;;;3.24;89.59;100084.95;3465061;80;20988;-69
2021/12/31 01:45:11;;;;;;;33.20;16.55;;;;;;;3.30;89.43;100101.86;3469626;80;21246;-68
2021/12/31 01:50:07;;;;;;;31.33;14.13;;;;;;;3.48;90.35;100101.65;3493601;80;20897;-69
2021/12/31 01:54:59;;;;;;;24.30;13.58;;;;;;;3.59;90.20;100095.59;3488155;80;20894;-69
2021/12/31 01:59:51;;;;;;;23.83;14.23;;;;;;;3.76;90.96;100098.35;3484553;80;20931;-69
2021/12/31 02:04:43;;;;;;;21.77;14.65;;;;;;;4.09;91.91;100100.73;3466668;79;21030;-69
2021/12/31 02:09:40;;;;;;;21.90;13.72;;;;;;;4.24;91.72;100105.10;3531631;79;21754;-68
2021/12/31 02:14:31;;;;;;;19.70;13.90;;;;;;;4.39;91.72;100104.72;3455650;78;20957;-69
2021/12/31 02:19:27;;;;;;;19.37;12.98;;;;;;;4.49;91.64;100101.61;3424932;79;20933;-69
2021/12/31 02:24:22;;;;;;;18.77;13.83;;;;;;;4.62;92.24;100106.73;3461808;79;21478;-69
2021/12/31 02:29:14;;;;;;;23.00;14.43;;;;;;;4.72;91.89;100078.26;3479471;79;20966;-68
2021/12/31 02:34:06;;;;;;;22.07;14.65;;;;;;;4.85;92.12;100077.81;3419534;79;21224;-69
2021/12/31 02:38:58;;;;;;;20.90;13.83;;;;;;;4.92;91.98;100084.03;3461957;78;20957;-68
2021/12/31 02:43:50;;;;;;;20.97;14.18;;;;;;;4.99;92.24;100090.22;3460554;79;20952;-68
2021/12/31 02:48:43;;;;;;;21.97;12.55;;;;;;;5.18;92.80;100092.50;3449592;79;20961;-68
2021/12/31 02:53:41;;;;;;;18.30;12.98;;;;;;;5.23;92.87;100101.24;3492907;79;20974;-68
2021/12/31 02:58:35;;;;;;;19.57;12.53;;;;;;;5.26;92.41;100093.61;3487553;79;21045;-69
2021/12/31 03:03:29;;;;;;;17.75;12.47;;;;;;;5.31;92.36;100094.62;3516716;79;20988;-68
2021/12/31 03:08:25;;;;;;;18.37;12.30;;;;;;;5.37;92.64;100091.76;3490000;80;20937;-69
2021/12/31 03:13:18;;;;;;;16.25;9.48;;;;;;;5.42;92.48;100092.34;3505480;79;20897;-69
2021/12/31 03:18:11;;;;;;;13.05;9.40;;;;;;;5.45;93.01;100092.83;3485313;78;21020;-68
2021/12/31 03:23:05;;;;;;;17.23;11.15;;;;;;;5.60;93.71;100091.06;3391684;81;21513;-69
2021/12/31 03:27:58;;;;;;;17.75;10.90;;;;;;;5.68;93.17;100084.00;3501232;78;20982;-69
2021/12/31 03:32:50;;;;;;;18.62;12.28;;;;;;;5.76;93.32;100072.62;3526702;80;20945;-69
2021/12/31 03:37:42;;;;;;;15.40;11.97;;;;;;;5.78;93.21;100089.39;3553919;78;20954;-69
2021/12/31 03:42:34;;;;;;;29.10;12.15;;;;;;;5.82;93.17;100082.22;3411467;81;20898;-69
2021/12/31 03:47:26;;;;;;;16.23;10.72;;;;;;;5.89;93.42;100095.73;3448268;80;21804;-69
2021/12/31 03:52:18;;;;;;;15.18;10.00;;;;;;;5.94;93.28;100092.86;3384910;81;20927;-69
2021/12/31 03:57:10;;;;;;;15.68;11.05;;;;;;;6.03;93.79;100088.38;3495908;78;20964;-68
2021/12/31 04:02:03;;;;;;;17.20;11.48;;;;;;;6.09;93.36;100088.09;3517658;78;20970;-69
2021/12/31 04:06:55;;;;;;;17.73;11.10;;;;;;;6.09;93.42;100094.55;3460208;80;20904;-68
2021/12/31 04:11:47;;;;;;;17.05;11.97;;;;;;;6.18;93.52;100090.03;3512366;79;21024;-69
2021/12/31 04:16:39;;;;;;;17.55;12.30;;;;;;;6.22;93.59;100089.69;3514196;79;22150;-69
2021/12/31 04:21:33;;;;;;;18.52;11.33;;;;;;;6.22;93.38;100096.15;3521824;79;22662;-69
2021/12/31 04:26:25;;;;;;;16.50;11.90;;;;;;;6.27;93.53;100090.26;3544919;78;20970;-69
2021/12/31 04:31:17;;;;;;;16.87;12.30;;;;;;;6.29;93.46;100094.17;3531558;78;21494;-69
2021/12/31 04:36:10;;;;;;;15.43;10.58;;;;;;;6.34;93.61;100091.72;3540481;78;21508;-69
2021/12/31 04:41:03;;;;;;;15.63;9.90;;;;;;;6.43;93.83;100100.97;3519945;78;20898;-69
2021/12/31 04:45:55;;;;;;;12.35;10.10;;;;;;;6.45;93.72;100103.16;3524981;78;20956;-70
2021/12/31 04:50:48;;;;;;;15.72;10.88;;;;;;;6.45;93.76;100098.86;3543273;78;20990;-68
2021/12/31 04:55:40;;;;;;;14.10;10.60;;;;;;;6.57;94.40;100101.30;3538660;78;20927;-69
2021/12/31 05:00:33;;;;;;;17.57;11.80;;;;;;;6.62;94.06;100115.20;3537037;78;21606;-69
2021/12/31 05:05:25;;;;;;;18.75;11.50;;;;;;;6.64;94.04;100118.69;3544857;78;21518;-69
2021/12/31 05:10:18;;;;;;;15.45;11.60;;;;;;;6.68;93.90;100118.77;3488578;81;20974;-69
2021/12/31 05:15:10;;;;;;;14.15;10.25;;;;;;;6.72;94.24;100118.42;3422097;79;21377;-69
2021/12/31 05:20:06;;;;;;;14.40;10.50;;;;;;;6.77;94.06;100118.12;3473916;81;21479;-68
2021/12/31 05:24:58;;;;;;;14.55;10.75;;;;;;;6.92;95.13;100112.84;3508420;78;20980;-69
2021/12/31 05:29:50;;;;;;;12.80;9.80;;;;;;;6.98;94.65;100112.56;3538948;79;20951;-68
2021/12/31 05:34:42;;;;;;;14.93;10.80;;;;;;;7.05;94.57;100116.16;3398110;81;20961;-69
2021/12/31 05:39:34;;;;;;;15.30;9.90;;;;;;;7.12;94.58;100114.16;3409867;79;21011;-68
2021/12/31 05:44:29;;;;;;;17.00;10.38;;;;;;;7.19;94.86;100103.10;3470559;80;20872;-70
2021/12/31 05:49:21;;;;;;;17.73;10.38;;;;;;;7.25;94.91;100098.47;3509975;79;21485;-69
2021/12/31 05:54:14;;;;;;;14.07;10.15;;;;;;;7.30;94.42;100106.31;3463864;79;20966;-69
2021/12/31 05:59:06;;;;;;;10.68;6.90;;;;;;;7.35;94.65;100104.69;3480191;79;21399;-69
2021/12/31 06:03:58;;;;;;;14.13;10.38;;;;;;;7.42;95.44;100106.56;3513587;79;21481;-70
2021/12/31 06:08:50;;;;;;;14.95;10.58;;;;;;;7.54;95.43;100099.05;3496686;79;21413;-69
2021/12/31 06:13:44;;;;;;;11.30;9.75;;;;;;;7.59;95.14;100109.06;3473788;79;21497;-68
2021/12/31 06:18:37;;;;;;;15.10;10.45;;;;;;;7.63;94.85;100107.41;3489663;79;20956;-69
2021/12/31 06:23:29;;;;;;;14.60;10.08;;;;;;;7.66;95.33;100106.61;3534283;79;20986;-69
2021/12/31 06:28:21;;;;;;;13.83;9.65;;;;;;;7.71;95.11;100098.09;3446300;79;21108;-69
2021/12/31 06:33:13;;;;;;;12.88;9.88;;;;;;;7.74;94.98;100091.65;3505349;79;20923;-69
2021/12/31 06:38:06;;;;;;;11.38;9.30;;;;;;;7.77;95.09;100099.48;3493560;79;20995;-70
2021/12/31 06:42:58;;;;;;;14.63;9.75;;;;;;;7.79;94.92;100099.52;3477186;81;20982;-69
2021/12/31 06:47:50;;;;;;;18.37;11.63;;;;;;;7.80;94.94;100099.55;3552159;78;20988;-69
2021/12/31 06:52:43;;;;;;;13.83;9.73;;;;;;;7.82;95.04;100096.98;3572340;79;20998;-69
2021/12/31 06:57:36;;;;;;;10.82;8.58;;;;;;;7.87;95.11;100101.83;3537414;78;21436;-69
2021/12/31 07:02:28;;;;;;;10.15;7.80;;;;;;;7.99;96.14;100097.28;3552534;78;21084;-69
2021/12/31 07:07:20;;;;;;;10.60;8.08;;;;;;;8.02;95.37;100109.85;3462324;78;22045;-70
2021/12/31 07:12:12;;;;;;;10.20;7.72;;;;;;;8.09;95.83;100100.91;3518259;79;21446;-69
2021/12/31 07:17:04;;;;;;;7.10;6.03;;;;;;;8.13;95.38;100109.17;3483291;79;21202;-70
2021/12/31 07:21:56;;;;;;;8.35;6.40;;;;;;;8.11;95.26;100109.58;3594758;78;20932;-70
2021/12/31 07:26:49;;;;;;;8.85;6.62;;;;;;;8.21;95.82;100111.48;3597019;78;22171;-69
2021/12/31 07:31:41;;;;;;;10.20;6.97;;;;;;;8.29;95.76;100111.17;3524423;78;20973;-69
2021/12/31 07:36:33;;;;;;;8.23;6.37;;;;;;;8.39;96.10;100113.07;3548110;78;21112;-69
2021/12/31 07:41:25;;;;;;;7.40;5.75;;;;;;;8.38;95.31;100121.67;3529527;78;20958;-68
2021/12/31 07:46:17;;;;;;;5.70;5.10;;;;;;;8.40;95.53;100127.75;3514320;78;21419;-68
2021/12/31 07:51:09;;;;;;;5.50;4.35;;;;;;;8.44;95.66;100122.66;3530348;78;21511;-69
2021/12/31 07:56:02;;;;;;;8.18;5.70;;;;;;;8.48;95.24;100114.11;3512675;78;20978;-70
2021/12/31 08:00:54;;;;;;;7.10;5.05;;;;;;;8.48;95.24;100114.11;3501848;78;20968;-69
2021/12/31 08:05:46;;;;;;;9.98;5.90;;;;;;;8.55;95.45;100118.11;3468480;81;20935;-69
2021/12/31 08:10:39;;;;;;;7.50;5.85;;;;;;;8.55;95.27;100128.47;3417627;81;20959;-68
2021/12/31 08:15:31;;;;;;;7.05;5.85;;;;;;;8.65;95.74;100125.59;3468077;79;20966;-70
2021/12/31 08:20:24;;;;;;;8.55;6.28;;;;;;;8.65;95.74;100125.59;3502005;78;21486;-70
2021/12/31 08:25:18;;;;;;;6.05;5.45;;;;;;;8.74;95.44;100126.16;3422966;81;21487;-69
2021/12/31 08:30:12;;;;;;;13.53;5.30;;;;;;;8.74;95.44;100126.16;3476426;78;20959;-70
2021/12/31 08:35:06;;;;;;;8.05;5.28;;;;;;;8.75;95.37;100121.43;3426592;79;21479;-69
2021/12/31 08:39:58;;;;;;;6.92;4.53;;;;;;;8.74;95.25;100123.13;3453601;79;21737;-69
2021/12/31 08:44:51;;;;;;;6.35;4.80;;;;;;;8.80;95.50;100120.19;3483364;79;21021;-68
2021/12/31 08:49:43;;;;;;;5.78;4.35;;;;;;;8.80;95.07;100122.77;3540468;79;21478;-69
2021/12/31 08:54:36;;;;;;;5.35;4.85;;;;;;;8.80;95.19;100123.67;3501476;78;21609;-69
2021/12/31 08:59:28;;;;;;;4.53;4.03;;;;;;;8.82;95.26;100113.30;3455010;79;20935;-69
2021/12/31 09:04:20;;;;;;;5.78;4.22;;;;;;;8.78;95.20;100110.68;3518202;79;20962;-69
2021/12/31 09:09:12;;;;;;;6.05;3.98;;;;;;;8.82;95.04;100118.08;3478545;78;20958;-69
2021/12/31 09:14:05;;;;;;;4.37;3.70;;;;;;;8.80;94.90;100112.41;3445380;79;21406;-69
2021/12/31 09:18:57;;;;;;;4.10;3.62;;;;;;;8.80;95.05;100109.81;3495623;79;20976;-70
2021/12/31 09:23:49;;;;;;;6.03;3.75;;;;;;;8.86;95.13;100106.03;3494731;80;21009;-68
2021/12/31 09:28:42;;;;;;;4.70;4.03;;;;;;;8.91;95.04;100103.08;3472613;79;20957;-69
2021/12/31 09:33:35;;;;;;;3.62;3.33;;;;;;;8.89;95.03;100096.98;3497657;79;21427;-69
2021/12/31 09:38:28;;;;;;;3.42;2.83;;;;;;;8.89;94.98;100098.27;3499884;79;21624;-68
2021/12/31 09:43:20;;;;;;;3.67;2.83;;;;;;;8.93;95.21;100097.05;3508298;79;21482;-69
2021/12/31 09:48:17;;;;;;;3.65;2.58;;;;;;;9.05;95.81;100096.36;3475803;78;20946;-69
2021/12/31 09:53:11;;;;;;;3.50;2.30;;;;;;;9.13;95.67;100092.13;3427018;79;21565;-69
2021/12/31 09:58:07;;;;;;;3.30;2.83;;;;;;;9.23;95.85;100087.05;3500003;79;20964;-69
2021/12/31 10:03:18;;;;;;;3.77;2.08;;;;;;;9.23;95.85;100087.05;3462732;79;20906;-69
2021/12/31 10:08:24;;;;;;;2.50;2.22;;;;;;;9.27;95.69;100083.66;3459423;79;21479;-68
2021/12/31 10:13:17;;;;;;;3.22;2.37;;;;;;;9.30;95.82;100085.87;3428018;81;21242;-69
2021/12/31 10:18:15;;;;;;;3.42;2.10;;;;;;;9.42;95.85;100083.83;3386652;81;22225;-68
2021/12/31 10:23:16;;;;;;;5.33;3.90;;;;;;;9.42;95.85;100083.83;3429218;81;21001;-68
2021/12/31 10:28:12;;;;;;;4.62;3.42;;;;;;;9.50;96.05;100070.52;3418814;80;21563;-68
2021/12/31 10:33:04;;;;;;;3.47;3.17;;;;;;;9.50;95.50;100062.73;3387484;81;21012;-68
2021/12/31 10:38:01;;;;;;;4.53;3.85;;;;;;;9.58;95.70;100056.32;3434090;80;21023;-71
2021/12/31 10:43:25;;;;;;;5.47;4.90;;;;;;;9.64;95.58;100058.10;3436223;79;21518;-69
2021/12/31 10:48:17;;;;;;;5.25;4.78;;;;;;;9.69;95.60;100052.53;3501195;79;20934;-69
2021/12/31 10:53:11;;;;;;;5.70;5.15;;;;;;;9.70;95.62;100052.99;3514571;79;20929;-69
2021/12/31 10:58:05;;;;;;;5.83;5.22;;;;;;;9.70;95.76;100057.75;3505945;79;20974;-69
2021/12/31 11:02:57;;;;;;;7.12;6.37;;;;;;;9.73;95.76;100053.03;3398539;82;20946;-69
2021/12/31 11:07:52;;;;;;;8.13;7.42;;;;;;;9.77;95.75;100047.00;3505755;79;21539;-70
2021/12/31 11:12:48;;;;;;;8.25;7.45;;;;;;;9.85;95.53;100042.73;3513365;78;21018;-69
2021/12/31 11:17:40;;;;;;;9.03;8.18;;;;;;;9.85;95.53;100042.73;3503639;78;20981;-69
2021/12/31 11:22:33;;;;;;;11.40;9.20;;;;;;;9.88;95.64;100037.58;3564014;78;21009;-69
2021/12/31 11:27:34;;;;;;;8.90;7.87;;;;;;;9.88;95.35;100041.47;3498284;78;20935;-70
2021/12/31 11:32:57;;;;;;;9.98;9.08;;;;;;;9.89;95.39;100035.84;3475785;78;21651;-69
2021/12/31 11:37:49;;;;;;;9.40;8.48;;;;;;;9.92;95.66;100018.56;3524367;78;21034;-68
2021/12/31 11:43:16;;;;;;;8.00;7.28;;;;;;;9.95;95.57;100006.48;3557806;78;20927;-69
2021/12/31 11:48:51;;;;;;;10.23;9.18;;;;;;;9.98;95.58;100009.09;3497670;78;21531;-69
2021/12/31 11:54:06;;;;;;;9.48;8.53;;;;;;;9.99;95.83;99997.86;3509015;78;21271;-70
2021/12/31 11:59:13;;;;;;;9.93;8.95;;;;;;;9.97;95.54;100000.88;3572325;78;20970;-70
2021/12/31 12:04:32;;;;;;;12.30;9.37;;;;;;;9.98;95.60;100007.38;3563093;78;20973;-70
2021/12/31 12:09:39;;;;;;;9.85;8.95;;;;;;;9.98;95.59;100007.79;3549495;79;20982;-70
2021/12/31 12:14:47;;;;;;;9.40;8.50;;;;;;;10.01;95.86;99996.99;3567643;78;20970;-69
2021/12/31 12:19:54;;;;;;;9.08;8.13;;;;;;;10.04;95.81;99996.16;3512920;78;20974;-69
2021/12/31 12:24:46;;;;;;;10.00;9.00;;;;;;;10.05;95.93;99997.89;3522675;78;21006;-69
2021/12/31 12:29:39;;;;;;;11.03;9.58;;;;;;;10.07;95.87;99998.80;3520031;78;20919;-69
2021/12/31 12:34:32;;;;;;;12.65;10.20;;;;;;;10.10;95.91;99998.80;3541458;78;21006;-69
2021/12/31 12:39:24;;;;;;;12.13;10.93;;;;;;;10.11;95.91;100003.14;3496817;79;21057;-68
2021/12/31 12:44:16;;;;;;;12.07;10.88;;;;;;;10.11;96.02;99995.36;3536995;78;20966;-68
2021/12/31 12:49:18;;;;;;;14.75;12.98;;;;;;;10.15;95.91;99999.70;3549931;78;21575;-69
2021/12/31 12:54:06;;;;;;;12.65;11.43;;;;;;;10.12;95.79;99986.69;3537654;79;21586;-69
2021/12/31 12:59:00;;;;;;;14.38;12.82;;;;;;;10.23;95.65;99991.95;3506828;78;20958;-69
2021/12/31 13:03:55;;;;;;;13.90;12.50;;;;;;;10.24;95.65;99995.86;3518912;79;21012;-69
2021/12/31 13:08:47;;;;;;;13.15;11.75;;;;;;;10.24;95.56;100003.66;3576153;79;20954;-69
2021/12/31 13:13:39;;;;;;;12.93;11.75;;;;;;;10.24;95.60;100004.09;3570743;78;22102;-69
2021/12/31 13:18:35;;;;;;;12.75;11.53;;;;;;;10.22;95.58;100001.48;3516099;78;21471;-68
2021/12/31 13:23:27;;;;;;;13.53;12.23;;;;;;;10.25;95.65;100001.52;3503447;78;21515;-69
2021/12/31 13:28:24;;;;;;;12.55;11.35;;;;;;;10.22;95.59;99991.09;3570096;78;22095;-70
2021/12/31 13:33:24;;;;;;;12.05;10.88;;;;;;;10.23;95.34;99991.55;3481795;80;21358;-69
2021/12/31 13:38:16;;;;;;;12.10;10.75;;;;;;;10.23;95.54;99990.25;3528688;78;21027;-70
2021/12/31 13:43:08;;;;;;;11.83;10.82;;;;;;;10.21;95.43;99978.98;3557795;78;20906;-69
2021/12/31 13:48:13;;;;;;;11.10;10.00;;;;;;;10.24;95.56;99973.78;3530674;79;20918;-70
2021/12/31 13:53:06;;;;;;;10.65;9.55;;;;;;;10.26;95.43;99966.86;3547694;78;21504;-70
2021/12/31 13:58:02;;;;;;;9.23;8.30;;;;;;;10.28;95.43;99974.67;3579329;78;21015;-71
2021/12/31 14:02:55;;;;;;;9.93;7.85;;;;;;;10.27;95.44;99967.31;3514525;79;21000;-70
2021/12/31 14:07:58;;;;;;;13.30;12.00;;;;;;;10.32;95.81;99971.70;3495704;79;20980;-70
2021/12/31 14:13:02;;;;;;;9.85;8.90;;;;;;;10.35;95.50;99979.52;3561205;78;20994;-69
2021/12/31 14:17:54;;;;;;;12.23;8.60;;;;;;;10.38;95.58;99960.91;3488692;79;20953;-70
2021/12/31 14:22:50;;;;;;;10.60;9.45;;;;;;;10.39;95.32;99979.56;3509235;79;20974;-70
2021/12/31 14:27:42;;;;;;;9.18;8.23;;;;;;;10.40;95.43;99976.08;3513963;78;21778;-71
2021/12/31 14:32:36;;;;;;;11.55;9.90;;;;;;;10.38;95.39;99973.05;3534300;78;20981;-71
2021/12/31 14:37:28;;;;;;;8.95;8.08;;;;;;;10.37;95.51;99981.69;3551878;78;20996;-71
2021/12/31 14:42:25;;;;;;;10.93;9.78;;;;;;;10.34;95.57;99976.06;3534146;78;21006;-71
2021/12/31 14:47:17;;;;;;;10.35;9.35;;;;;;;10.34;95.57;99972.16;3550361;78;20955;-71
2021/12/31 14:52:13;;;;;;;10.80;9.70;;;;;;;10.33;95.67;99977.34;3548550;78;21078;-71
2021/12/31 14:57:07;;;;;;;10.28;9.28;;;;;;;10.29;95.49;99978.58;3468832;79;20956;-72
2021/12/31 15:01:59;;;;;;;11.12;9.85;;;;;;;10.28;95.62;99975.97;3545979;79;20966;-71
2021/12/31 15:06:51;;;;;;;12.28;11.00;;;;;;;10.27;95.52;99979.01;3537278;79;21064;-70
2021/12/31 15:11:43;;;;;;;11.63;10.43;;;;;;;10.26;95.70;99970.76;3488669;79;20987;-71
2021/12/31 15:16:35;;;;;;;11.60;10.60;;;;;;;10.25;95.81;99967.73;3515742;79;21812;-70
2021/12/31 15:21:27;;;;;;;13.62;12.18;;;;;;;10.24;95.74;99974.22;3582210;78;21096;-71
2021/12/31 15:26:22;;;;;;;14.13;11.45;;;;;;;10.25;95.99;99969.48;3532451;78;20944;-70
2021/12/31 15:31:15;;;;;;;11.20;10.13;;;;;;;10.23;95.89;99947.37;3571525;78;20966;-70
2021/12/31 15:36:09;;;;;;;13.88;11.68;;;;;;;10.21;95.63;99958.20;3552873;78;20986;-70
2021/12/31 15:41:03;;;;;;;14.28;11.15;;;;;;;10.22;95.80;99954.72;3522268;79;21939;-70
2021/12/31 15:45:55;;;;;;;12.47;11.28;;;;;;;10.22;95.80;99954.72;3501153;78;22152;-71
2021/12/31 15:50:47;;;;;;;12.33;10.30;;;;;;;10.22;95.71;99948.23;3518388;78;21469;-70
2021/12/31 15:55:39;;;;;;;12.30;9.75;;;;;;;10.20;95.53;99942.16;3538166;78;21481;-70
2021/12/31 16:00:33;;;;;;;13.90;10.32;;;;;;;10.22;95.72;99941.73;3497629;78;21538;-70
2021/12/31 16:05:25;;;;;;;11.53;10.38;;;;;;;10.22;95.63;99935.67;3518865;78;20988;-70
2021/12/31 16:10:17;;;;;;;10.50;9.50;;;;;;;10.20;95.48;99930.47;3481629;80;21036;-70
2021/12/31 16:15:13;;;;;;;10.55;9.30;;;;;;;10.21;95.64;99930.03;3515377;79;20922;-70
2021/12/31 16:20:06;;;;;;;10.75;9.38;;;;;;;10.22;95.66;99913.16;3503334;78;20950;-71
2021/12/31 16:24:59;;;;;;;9.98;8.75;;;;;;;10.26;95.55;99920.09;3483529;79;22118;-73
2021/12/31 16:29:57;;;;;;;9.48;8.23;;;;;;;10.29;95.37;99914.92;3500195;79;20949;-71
2021/12/31 16:34:50;;;;;;;11.15;7.35;;;;;;;10.28;95.18;99921.00;3478179;78;21040;-71
2021/12/31 16:39:42;;;;;;;11.05;7.75;;;;;;;10.29;95.04;99912.77;3455353;78;20966;-71
2021/12/31 16:44:34;;;;;;;10.18;6.75;;;;;;;10.29;95.10;99920.13;3436521;79;21451;-72
2021/12/31 16:49:27;;;;;;;8.05;7.25;;;;;;;10.29;94.99;99904.53;3486265;79;40164;-71
2021/12/31 16:54:19;;;;;;;10.82;7.67;;;;;;;10.30;94.96;99906.69;3507179;79;21094;-72
2021/12/31 16:59:11;;;;;;;9.13;6.85;;;;;;;10.27;94.82;99895.87;3461476;79;20970;-72
2021/12/31 17:04:04;;;;;;;8.43;6.60;;;;;;;10.28;94.84;99894.13;3489961;79;21005;-72
2021/12/31 17:08:56;;;;;;;12.88;7.70;;;;;;;10.28;94.76;99889.83;3458109;80;21237;-72
2021/12/31 17:13:48;;;;;;;11.95;7.08;;;;;;;10.30;94.70;99897.19;3508217;80;20938;-72
2021/12/31 17:18:40;;;;;;;8.65;7.75;;;;;;;10.36;94.71;99889.02;3515925;80;21243;-73
2021/12/31 17:23:32;;;;;;;13.13;9.90;;;;;;;10.37;94.51;99885.11;3521378;78;21522;-72
2021/12/31 17:28:24;;;;;;;11.10;9.75;;;;;;;10.40;94.37;99882.53;3457235;81;20991;-72
2021/12/31 17:33:16;;;;;;;7.22;6.53;;;;;;;10.41;94.28;99883.39;3465819;78;21013;-72
2021/12/31 17:38:09;;;;;;;7.90;6.80;;;;;;;10.41;94.08;99874.30;3511237;78;21041;-72
2021/12/31 17:43:00;;;;;;;9.75;7.00;;;;;;;10.41;94.00;99874.30;3518942;79;20934;-71
2021/12/31 17:47:52;;;;;;;8.55;6.50;;;;;;;10.41;93.94;99877.78;3537651;79;20967;-72
2021/12/31 17:52:44;;;;;;;8.75;6.42;;;;;;;10.40;93.82;99881.23;3551355;79;21006;-72
2021/12/31 17:57:37;;;;;;;7.40;5.95;;;;;;;10.40;93.78;99868.23;3438974;81;21009;-72
2021/12/31 18:02:29;;;;;;;11.50;6.80;;;;;;;10.41;93.53;99871.70;3527569;79;20978;-72
2021/12/31 18:07:21;;;;;;;7.33;5.42;;;;;;;10.42;93.63;99869.11;3515387;78;21158;-71
2021/12/31 18:12:13;;;;;;;9.93;7.55;;;;;;;10.42;93.50;99863.05;3511448;79;21010;-72
2021/12/31 18:17:05;;;;;;;8.73;6.58;;;;;;;10.42;93.44;99870.84;3505436;79;20937;-72
2021/12/31 18:21:58;;;;;;;14.68;10.48;;;;;;;10.41;93.39;99863.49;3514115;79;20982;-72
2021/12/31 18:26:50;;;;;;;9.68;7.50;;;;;;;10.41;93.25;99866.09;3486771;79;20939;-72
2021/12/31 18:31:42;;;;;;;9.60;6.80;;;;;;;10.41;93.19;99871.70;3459940;80;21058;-74
2021/12/31 18:36:35;;;;;;;7.55;6.25;;;;;;;10.42;93.09;99877.34;3513658;79;21426;-72
2021/12/31 18:41:27;;;;;;;10.28;6.00;;;;;;;10.44;93.11;99867.38;3482980;79;20951;-73
2021/12/31 18:46:25;;;;;;;8.45;6.65;;;;;;;10.44;92.94;99869.12;3460939;79;21091;-72
2021/12/31 18:51:15;;;;;;;9.03;6.03;;;;;;;10.46;92.83;99869.98;3539681;79;20984;-70
2021/12/31 18:56:07;;;;;;;9.53;6.12;;;;;;;10.47;92.71;99874.34;3551413;79;21074;-73
2021/12/31 19:00:59;;;;;;;10.40;8.58;;;;;;;10.45;92.61;99866.97;3479199;79;20966;-72
2021/12/31 19:05:51;;;;;;;8.45;6.65;;;;;;;10.46;92.57;99863.48;3528266;79;21005;-71
2021/12/31 19:10:43;;;;;;;11.43;6.55;;;;;;;10.45;92.44;99864.37;3476294;79;21001;-71
2021/12/31 19:15:35;;;;;;;11.15;6.75;;;;;;;10.47;92.44;99861.34;3498871;79;21204;-73
2021/12/31 19:20:27;;;;;;;7.95;6.15;;;;;;;10.46;92.24;99851.80;3505901;79;20938;-71
2021/12/31 19:25:23;;;;;;;8.30;6.10;;;;;;;10.46;92.17;99853.09;3510939;79;20958;-73
2021/12/31 19:30:14;;;;;;;8.05;6.22;;;;;;;10.47;92.04;99863.50;3525343;79;21414;-73
2021/12/31 19:35:08;;;;;;;9.03;6.37;;;;;;;10.47;91.81;99857.44;3494745;78;22010;-72
2021/12/31 19:40:00;;;;;;;10.45;6.53;;;;;;;10.48;91.92;99856.56;3454014;78;20976;-72
2021/12/31 19:44:52;;;;;;;8.28;6.60;;;;;;;10.45;91.75;99857.88;3514455;79;21430;-72
2021/12/31 19:49:44;;;;;;;7.25;6.53;;;;;;;10.43;91.73;99860.47;3483394;79;21544;-72
2021/12/31 19:54:36;;;;;;;11.40;7.42;;;;;;;10.42;91.94;99865.65;3513849;79;20902;-72
2021/12/31 19:59:28;;;;;;;10.32;7.22;;;;;;;10.36;92.13;99857.41;3540438;79;21454;-72
2021/12/31 20:04:20;;;;;;;8.60;7.33;;;;;;;10.30;92.29;99861.22;3508673;79;21061;-72
2021/12/31 20:09:12;;;;;;;12.15;7.42;;;;;;;10.24;92.47;99863.37;3461912;79;21491;-71
2021/12/31 20:14:04;;;;;;;10.55;7.50;;;;;;;10.19;92.60;99853.38;3525906;79;21493;-71
2021/12/31 20:18:56;;;;;;;10.98;8.25;;;;;;;10.16;92.81;99863.78;3427728;81;21460;-74
2021/12/31 20:23:48;;;;;;;6.83;6.12;;;;;;;10.11;92.93;99858.55;3473796;80;21592;-71
2021/12/31 20:28:40;;;;;;;8.93;7.67;;;;;;;10.09;93.30;99862.02;3426898;81;21023;-71
2021/12/31 20:33:32;;;;;;;8.18;6.58;;;;;;;10.06;93.33;99857.66;3559754;79;21065;-72
2021/12/31 20:38:24;;;;;;;10.63;6.90;;;;;;;10.04;93.54;99866.31;3595764;78;21472;-71
2021/12/31 20:43:16;;;;;;;9.80;7.35;;;;;;;10.04;93.64;99865.02;3527515;78;21440;-73
2021/12/31 20:48:08;;;;;;;9.15;7.05;;;;;;;10.05;93.88;99877.12;3514761;78;20970;-71
2021/12/31 20:53:00;;;;;;;10.28;8.08;;;;;;;10.06;93.82;99880.17;3522610;78;21016;-71
2021/12/31 20:57:52;;;;;;;7.47;6.53;;;;;;;10.06;93.91;99886.66;3455577;78;20995;-72
2021/12/31 21:02:44;;;;;;;9.58;7.72;;;;;;;10.06;93.92;99873.67;3542912;78;20905;-71
2021/12/31 21:07:36;;;;;;;10.40;7.50;;;;;;;10.07;94.05;99882.78;3526249;78;20954;-71
2021/12/31 21:12:29;;;;;;;8.50;7.55;;;;;;;10.09;94.00;99885.39;3504331;79;21201;-71
2021/12/31 21:17:21;;;;;;;8.60;7.45;;;;;;;10.09;93.98;99885.39;3469507;79;20956;-71
2021/12/31 21:22:13;;;;;;;9.18;6.87;;;;;;;10.10;94.19;99894.90;3423746;79;21001;-71
2021/12/31 21:27:05;;;;;;;7.97;7.17;;;;;;;10.10;94.15;99884.11;3563120;78;20952;-72
2021/12/31 21:31:57;;;;;;;9.43;6.47;;;;;;;10.09;94.23;99890.14;3562411;79;21006;-72
2021/12/31 21:36:51;;;;;;;7.90;7.03;;;;;;;10.09;94.12;99890.58;3506641;79;20946;-72
2021/12/31 21:41:43;;;;;;;7.78;6.97;;;;;;;10.09;94.24;99890.58;3454997;80;21392;-73
2021/12/31 21:46:35;;;;;;;9.73;7.47;;;;;;;10.09;94.25;99897.08;3563020;79;21352;-71
2021/12/31 21:51:27;;;;;;;8.80;6.80;;;;;;;10.08;94.21;99895.33;3482910;79;20917;-72
2021/12/31 21:56:19;;;;;;;10.63;7.42;;;;;;;10.08;94.24;99891.43;3506537;79;20933;-72
2021/12/31 22:01:11;;;;;;;8.80;7.87;;;;;;;10.08;94.36;99884.94;3532661;78;20971;-71
2021/12/31 22:06:04;;;;;;;10.53;8.75;;;;;;;10.07;94.35;99884.08;3503567;79;20954;-72
2021/12/31 22:10:56;;;;;;;8.63;7.45;;;;;;;10.08;94.27;99883.64;3482865;79;21100;-71
2021/12/31 22:15:49;;;;;;;9.13;7.37;;;;;;;10.09;94.25;99882.79;3465805;79;21012;-72
2021/12/31 22:20:42;;;;;;;9.95;8.65;;;;;;;10.09;94.22;99881.05;3437914;81;20966;-71
2021/12/31 22:25:34;;;;;;;11.53;7.75;;;;;;;10.10;94.16;99889.70;3473905;80;20947;-72
2021/12/31 22:30:27;;;;;;;9.28;8.33;;;;;;;10.09;94.16;99890.14;3461135;80;21535;-71
2021/12/31 22:35:19;;;;;;;9.65;8.50;;;;;;;10.09;94.12;99890.58;3435604;80;21482;-72
2021/12/31 22:40:12;;;;;;;9.65;8.30;;;;;;;10.11;94.14;99899.25;3471906;80;20980;-72
2021/12/31 22:45:08;;;;;;;10.85;8.30;;;;;;;10.11;94.06;99895.35;3458585;79;20967;-72